Time;durP1;ratioP1;P1;durP2;ratioP2;P2;SDS_P1;SDS_P2;PMS_P1;PMS_P2;Temp;Humidity;BMP_temperature;BMP_pressure;BME280_temperature;BME280_humidity;BME280_pressure;Samples;Min_cycle;Max_cycle;Signal;HPM_P1;HPM_P2
2023/04/12 00:01:36;;;;;;;5.37;1.83;;;8.90;99.90;;;;;;5075151;28;20025;-64
2023/04/12 00:04:03;;;;;;;8.33;1.80;;;8.80;99.90;;;;;;5075915;28;20315;-78
2023/04/12 00:06:32;;;;;;;8.30;1.67;;;8.90;99.90;;;;;;5075217;28;20078;-66
2023/04/12 00:09:02;;;;;;;4.40;1.58;;;8.80;99.90;;;;;;5075531;28;20040;-65
2023/04/12 00:11:30;;;;;;;3.50;1.75;;;8.80;99.90;;;;;;5075459;28;20503;-65
2023/04/12 00:13:56;;;;;;;9.00;1.60;;;8.80;99.90;;;;;;5074931;28;20028;-79
2023/04/12 00:16:21;;;;;;;6.70;1.80;;;8.80;99.90;;;;;;5075312;28;20430;-64
2023/04/12 00:18:47;;;;;;;4.57;1.33;;;8.70;99.90;;;;;;5074969;28;20063;-65
2023/04/12 00:21:18;;;;;;;4.73;1.87;;;8.80;99.90;;;;;;5075202;28;20021;-64
2023/04/12 00:23:46;;;;;;;9.05;2.20;;;8.70;99.90;;;;;;5073786;28;20035;-64
2023/04/12 00:26:13;;;;;;;6.88;2.25;;;8.70;99.90;;;;;;5075172;28;20020;-64
2023/04/12 00:28:39;;;;;;;4.25;1.60;;;8.70;99.90;;;;;;5074922;28;20056;-64
2023/04/12 00:31:05;;;;;;;8.18;1.70;;;8.70;99.90;;;;;;5074934;28;22352;-78
2023/04/12 00:33:33;;;;;;;7.27;2.20;;;8.70;99.90;;;;;;5075135;28;20025;-64
2023/04/12 00:35:59;;;;;;;4.22;1.63;;;8.70;99.90;;;;;;5073371;28;20090;-73
2023/04/12 00:38:25;;;;;;;6.50;1.40;;;8.60;99.90;;;;;;5073698;28;20017;-65
2023/04/12 00:40:51;;;;;;;5.80;1.67;;;8.60;99.90;;;;;;5075184;28;20035;-65
2023/04/12 00:43:17;;;;;;;7.78;1.77;;;8.60;99.90;;;;;;5074418;28;20025;-64
2023/04/12 00:45:45;;;;;;;4.25;1.83;;;8.60;99.90;;;;;;5075138;28;20037;-65
2023/04/12 00:48:11;;;;;;;5.57;2.10;;;8.60;99.90;;;;;;5074245;28;20027;-65
2023/04/12 00:50:43;;;;;;;7.47;1.63;;;8.50;99.90;;;;;;5075014;28;20031;-64
2023/04/12 00:53:12;;;;;;;6.25;1.60;;;8.60;99.90;;;;;;5061374;28;20029;-67
2023/04/12 00:55:42;;;;;;;9.18;2.67;;;8.50;99.90;;;;;;5074804;28;20028;-64
2023/04/12 00:58:09;;;;;;;6.78;1.67;;;8.50;99.90;;;;;;5074434;28;20378;-64
2023/04/12 01:00:35;;;;;;;4.65;1.33;;;8.50;99.90;;;;;;5074968;28;20021;-77
2023/04/12 01:03:01;;;;;;;3.47;1.53;;;8.50;99.90;;;;;;5074251;28;20040;-80
2023/04/12 01:05:27;;;;;;;5.35;1.35;;;8.50;99.90;;;;;;5076410;28;20319;-64
2023/04/12 01:08:23;;;;;;;2.65;1.40;;;8.50;99.90;;;;;;5078759;28;20063;-65
2023/04/12 01:11:00;;;;;;;3.38;1.50;;;8.40;99.90;;;;;;5079154;28;20043;-64
2023/04/12 01:13:39;;;;;;;2.22;0.98;;;8.40;99.90;;;;;;5078487;28;20029;-78
2023/04/12 01:16:22;;;;;;;5.82;1.33;;;8.40;99.90;;;;;;5079053;28;20111;-79
2023/04/12 01:18:56;;;;;;;2.10;0.95;;;8.40;99.90;;;;;;5065521;28;20017;-78
2023/04/12 01:21:41;;;;;;;2.22;1.02;;;8.30;99.90;;;;;;5078570;28;20025;-64
2023/04/12 01:24:19;;;;;;;6.60;1.48;;;8.30;99.90;;;;;;5067184;28;20024;-78
2023/04/12 01:26:50;;;;;;;2.72;1.23;;;8.30;99.90;;;;;;5078203;28;20049;-64
2023/04/12 01:29:20;;;;;;;4.32;0.90;;;8.30;99.90;;;;;;5077351;28;20091;-63
2023/04/12 01:31:56;;;;;;;2.13;0.90;;;8.30;99.90;;;;;;5078008;28;20048;-64
2023/04/12 01:34:24;;;;;;;;;;;8.30;99.90;;;;;;5078949;28;20065;-66
2023/04/12 01:36:50;;;;;;;5.20;1.10;;;8.30;99.90;;;;;;5077768;28;19908;-64
2023/04/12 01:39:16;;;;;;;3.83;1.40;;;8.30;99.90;;;;;;5078375;28;20024;-65
2023/04/12 01:41:44;;;;;;;1.67;0.83;;;8.30;99.90;;;;;;5078087;28;20434;-64
2023/04/12 01:44:16;;;;;;;3.28;1.25;;;8.20;99.90;;;;;;5077994;28;20023;-65
2023/04/12 01:46:46;;;;;;;3.53;1.48;;;8.20;99.90;;;;;;5077985;28;20027;-64
2023/04/12 01:49:12;;;;;;;2.33;0.95;;;8.20;99.90;;;;;;5078015;28;20020;-64
2023/04/12 01:52:12;;;;;;;3.55;0.98;;;8.20;99.90;;;;;;5077990;28;20331;-65
2023/04/12 01:54:40;;;;;;;1.92;1.00;;;8.30;99.90;;;;;;4983758;28;20113;-64
2023/04/12 01:57:07;;;;;;;2.30;1.13;;;8.30;99.90;;;;;;4996445;28;20038;-81
2023/04/12 01:59:40;;;;;;;3.22;0.85;;;8.30;99.90;;;;;;4996316;28;20372;-63
2023/04/12 02:02:08;;;;;;;5.75;1.30;;;8.30;99.90;;;;;;4996440;28;20027;-75
2023/04/12 02:04:35;;;;;;;5.68;1.30;;;8.30;99.90;;;;;;4996079;28;20058;-65
2023/04/12 02:07:02;;;;;;;4.10;1.13;;;8.30;99.90;;;;;;4996508;28;20064;-84
2023/04/12 02:09:27;;;;;;;5.32;1.27;;;8.30;99.90;;;;;;4996258;28;20065;-65
2023/04/12 02:11:53;;;;;;;4.53;1.00;;;8.30;99.90;;;;;;4996304;28;20066;-65
2023/04/12 02:14:19;;;;;;;1.77;1.30;;;8.30;99.90;;;;;;4996009;28;20040;-68
2023/04/12 02:16:45;;;;;;;5.17;1.30;;;8.30;99.90;;;;;;4995079;28;20026;-65
2023/04/12 02:19:11;;;;;;;3.77;1.30;;;8.30;99.90;;;;;;4996278;28;20026;-63
2023/04/12 02:21:45;;;;;;;4.05;0.98;;;8.30;99.90;;;;;;4996060;28;20026;-65
2023/04/12 02:24:11;;;;;;;4.75;1.30;;;8.20;99.90;;;;;;4996198;28;20414;-65
2023/04/12 02:26:38;;;;;;;3.13;1.10;;;8.20;99.90;;;;;;4995886;28;20026;-64
2023/04/12 02:29:07;;;;;;;6.72;1.50;;;8.20;99.90;;;;;;4999860;28;20097;-81
2023/04/12 02:31:35;;;;;;;1.60;1.02;;;8.30;99.90;;;;;;5077142;28;20032;-63
2023/04/12 02:34:01;;;;;;;6.38;1.23;;;8.20;99.90;;;;;;5077239;28;20438;-81
2023/04/12 02:36:28;;;;;;;1.60;0.80;;;8.20;99.90;;;;;;5077018;28;20033;-64
2023/04/12 02:38:54;;;;;;;6.03;1.45;;;8.30;99.90;;;;;;5077153;28;20044;-64
2023/04/12 02:41:21;;;;;;;1.67;0.93;;;8.20;99.90;;;;;;5077312;28;20024;-65
2023/04/12 02:43:47;;;;;;;3.50;1.10;;;8.20;99.90;;;;;;5076864;28;20097;-64
2023/04/12 02:46:23;;;;;;;4.73;1.43;;;8.20;99.90;;;;;;5077198;28;20449;-84
2023/04/12 02:48:49;;;;;;;1.85;1.30;;;8.30;99.90;;;;;;5076944;28;20095;-64
2023/04/12 02:51:15;;;;;;;2.92;1.20;;;8.20;99.90;;;;;;5077050;28;20044;-64
2023/04/12 02:53:41;;;;;;;5.53;1.58;;;8.20;99.90;;;;;;5075650;28;20020;-65
2023/04/12 02:56:08;;;;;;;1.50;1.00;;;8.30;99.90;;;;;;5075680;28;20056;-81
2023/04/12 02:58:35;;;;;;;2.88;1.20;;;8.30;99.90;;;;;;5077312;28;20028;-64
2023/04/12 03:01:01;;;;;;;;;;;8.30;99.90;;;;;;5076934;28;20476;-86
2023/04/12 03:03:30;;;;;;;1.48;1.20;;;8.20;99.90;;;;;;5067508;28;19954;-65
2023/04/12 03:05:57;;;;;;;1.30;1.00;;;8.20;99.90;;;;;;5072393;28;20111;-64
2023/04/12 03:08:23;;;;;;;3.22;1.38;;;8.20;99.90;;;;;;5076788;28;20479;-66
2023/04/12 03:10:48;;;;;;;5.97;1.77;;;8.20;99.90;;;;;;5076965;28;20115;-78
2023/04/12 03:13:14;;;;;;;5.27;1.47;;;8.20;99.90;;;;;;5062547;28;20120;-64
2023/04/12 03:15:42;;;;;;;3.27;1.07;;;8.20;99.90;;;;;;5075658;28;20038;-64
2023/04/12 03:18:08;;;;;;;2.33;0.90;;;8.20;99.90;;;;;;5076189;28;20063;-82
2023/04/12 03:20:34;;;;;;;5.38;1.20;;;8.30;99.90;;;;;;5076636;28;20028;-65
2023/04/12 03:23:00;;;;;;;3.87;1.23;;;8.30;99.90;;;;;;5074804;28;20079;-82
2023/04/12 03:25:26;;;;;;;2.13;0.93;;;8.20;99.90;;;;;;5075552;28;20475;-65
2023/04/12 03:27:51;;;;;;;4.37;1.40;;;8.20;99.90;;;;;;5074539;28;20040;-64
2023/04/12 03:30:17;;;;;;;3.00;1.43;;;8.20;99.90;;;;;;5076848;28;20028;-65
2023/04/12 03:32:44;;;;;;;2.83;1.23;;;8.20;99.90;;;;;;5076572;28;20024;-65
2023/04/12 03:35:10;;;;;;;1.85;1.10;;;8.20;99.90;;;;;;5076074;28;20035;-65
2023/04/12 03:37:40;;;;;;;2.47;1.25;;;8.30;99.90;;;;;;5076586;28;20036;-64
2023/04/12 03:40:08;;;;;;;5.85;1.38;;;8.30;99.90;;;;;;5076200;28;20020;-86
2023/04/12 03:42:33;;;;;;;5.95;1.55;;;8.20;99.90;;;;;;5076044;28;20085;-65
2023/04/12 03:45:00;;;;;;;4.80;1.23;;;8.30;99.90;;;;;;5075821;28;20100;-87
2023/04/12 03:47:25;;;;;;;2.47;1.17;;;8.20;99.90;;;;;;5075972;28;20428;-65
2023/04/12 03:49:53;;;;;;;2.10;1.20;;;8.30;99.90;;;;;;5075921;28;20025;-64
2023/04/12 03:52:19;;;;;;;1.55;1.10;;;8.30;99.90;;;;;;5075886;28;20093;-66
2023/04/12 03:54:45;;;;;;;6.47;1.30;;;8.30;99.90;;;;;;5075814;28;20399;-64
2023/04/12 03:57:10;;;;;;;3.37;1.20;;;8.20;99.90;;;;;;5075946;28;20434;-65
2023/04/12 03:59:36;;;;;;;4.90;1.30;;;8.20;99.90;;;;;;5075378;28;20289;-65
2023/04/12 04:02:02;;;;;;;2.77;1.10;;;8.20;99.90;;;;;;5075961;28;20051;-81
2023/04/12 04:04:28;;;;;;;2.33;0.97;;;8.20;99.90;;;;;;5075353;28;20304;-64
2023/04/12 04:06:53;;;;;;;1.80;1.17;;;8.20;99.90;;;;;;5075860;28;20467;-65
2023/04/12 04:09:19;;;;;;;1.70;1.17;;;8.20;99.90;;;;;;5075381;28;20028;-66
2023/04/12 04:11:50;;;;;;;1.42;1.13;;;8.20;99.90;;;;;;5075539;28;20028;-66
2023/04/12 04:14:16;;;;;;;1.73;1.10;;;8.20;99.90;;;;;;5075279;28;20024;-66
2023/04/12 04:16:41;;;;;;;3.83;1.20;;;8.20;99.90;;;;;;5075500;28;20099;-66
2023/04/12 04:19:07;;;;;;;2.10;1.20;;;8.20;99.90;;;;;;5075708;28;20025;-82
2023/04/12 04:21:33;;;;;;;1.63;1.00;;;8.20;99.90;;;;;;5074995;28;20100;-65
2023/04/12 04:24:02;;;;;;;1.30;1.00;;;8.20;99.90;;;;;;5075642;28;20403;-64
2023/04/12 04:26:32;;;;;;;1.15;1.02;;;8.20;99.90;;;;;;5075100;28;20039;-84
2023/04/12 04:29:02;;;;;;;4.13;1.10;;;8.20;99.90;;;;;;5074983;28;20132;-65
2023/04/12 04:31:33;;;;;;;4.43;1.35;;;8.20;99.90;;;;;;5075019;28;20043;-66
2023/04/12 04:34:04;;;;;;;1.77;1.10;;;8.20;99.90;;;;;;5075605;28;20078;-77
2023/04/12 04:36:32;;;;;;;3.00;1.20;;;8.20;99.90;;;;;;5074842;28;20031;-64
2023/04/12 04:38:58;;;;;;;2.17;1.48;;;8.20;99.90;;;;;;5075301;28;20078;-65
2023/04/12 04:41:25;;;;;;;2.50;1.10;;;8.20;99.90;;;;;;5074577;28;20350;-88
2023/04/12 04:43:51;;;;;;;;;;;8.20;99.90;;;;;;5075121;28;20430;-65
2023/04/12 04:46:19;;;;;;;3.23;1.20;;;8.20;99.90;;;;;;5075255;28;19948;-64
2023/04/12 04:48:50;;;;;;;3.80;1.20;;;8.20;99.90;;;;;;5074897;28;20028;-64
2023/04/12 04:51:17;;;;;;;4.75;1.58;;;8.20;99.90;;;;;;5075182;28;20024;-66
2023/04/12 04:53:43;;;;;;;1.50;1.05;;;8.20;99.90;;;;;;5075265;28;20032;-63
2023/04/12 04:56:09;;;;;;;3.53;1.17;;;8.20;99.90;;;;;;5074881;28;20040;-82
2023/04/12 04:58:35;;;;;;;2.33;1.38;;;8.30;99.90;;;;;;5074904;28;20021;-64
2023/04/12 05:01:01;;;;;;;1.87;1.20;;;8.30;99.90;;;;;;5074955;28;20036;-84
2023/04/12 05:03:26;;;;;;;1.97;1.30;;;8.30;99.90;;;;;;5074865;28;20403;-65
2023/04/12 05:05:53;;;;;;;1.10;1.00;;;8.30;99.90;;;;;;5074719;28;20028;-65
2023/04/12 05:08:19;;;;;;;;;;;8.30;99.90;;;;;;5074250;28;20442;-64
2023/04/12 05:10:51;;;;;;;2.30;1.40;;;8.30;99.90;;;;;;5074936;28;19904;-66
2023/04/12 05:13:17;;;;;;;2.45;1.38;;;8.30;99.90;;;;;;5060978;28;20032;-64
2023/04/12 05:15:43;;;;;;;4.13;1.50;;;8.30;99.90;;;;;;5074656;28;20050;-65
2023/04/12 05:18:09;;;;;;;3.97;2.10;;;8.40;99.90;;;;;;5074632;28;20459;-64
2023/04/12 05:20:37;;;;;;;1.70;1.47;;;8.30;99.90;;;;;;5075050;28;20029;-65
2023/04/12 05:23:03;;;;;;;2.58;1.65;;;8.40;99.90;;;;;;5074732;28;20037;-86
2023/04/12 05:25:28;;;;;;;2.93;1.63;;;8.40;99.90;;;;;;5074769;28;20035;-65
2023/04/12 05:27:54;;;;;;;2.33;2.00;;;8.30;99.90;;;;;;5073968;28;20036;-66
2023/04/12 05:30:20;;;;;;;3.80;2.27;;;8.30;99.90;;;;;;5075080;28;20082;-65
2023/04/12 05:32:46;;;;;;;3.27;1.73;;;8.30;99.90;;;;;;5074707;28;20418;-64
2023/04/12 05:35:11;;;;;;;3.53;2.47;;;8.40;99.90;;;;;;5074460;28;20035;-64
2023/04/12 05:37:37;;;;;;;3.90;2.10;;;8.40;99.90;;;;;;5074595;28;20297;-66
2023/04/12 05:40:08;;;;;;;2.80;1.93;;;8.40;99.90;;;;;;5074228;28;20036;-83
2023/04/12 05:42:35;;;;;;;5.90;2.28;;;8.40;99.90;;;;;;5074637;28;20408;-65
2023/04/12 05:45:02;;;;;;;4.47;1.90;;;8.40;99.90;;;;;;5074353;28;20296;-81
2023/04/12 05:47:28;;;;;;;3.47;1.98;;;8.40;99.90;;;;;;5074345;28;20020;-65
2023/04/12 05:49:54;;;;;;;2.57;2.00;;;8.40;99.90;;;;;;5074498;28;20025;-64
2023/04/12 05:52:20;;;;;;;2.93;2.10;;;8.40;99.90;;;;;;5076483;28;20981;-65
2023/04/12 05:54:46;;;;;;;6.60;3.13;;;8.30;99.90;;;;;;5078325;28;20023;-64
2023/04/12 05:57:12;;;;;;;4.57;2.67;;;8.40;99.90;;;;;;5078363;28;20025;-65
2023/04/12 05:59:39;;;;;;;3.63;2.70;;;8.30;99.90;;;;;;5063963;28;20020;-65
2023/04/12 06:02:04;;;;;;;4.38;2.83;;;8.30;99.90;;;;;;5077931;28;20044;-77
2023/04/12 06:04:31;;;;;;;5.93;2.70;;;8.30;99.90;;;;;;5077951;28;20395;-64
2023/04/12 06:06:56;;;;;;;4.15;2.95;;;8.40;99.90;;;;;;5077755;28;20099;-67
2023/04/12 06:09:22;;;;;;;10.17;2.70;;;8.40;99.90;;;;;;5077669;28;20472;-65
2023/04/12 06:11:48;;;;;;;29.00;3.73;;;8.40;99.90;;;;;;5077578;28;20024;-66
2023/04/12 06:14:13;;;;;;;11.13;3.37;;;8.40;99.90;;;;;;5077814;28;20111;-84
2023/04/12 06:16:39;;;;;;;5.67;3.07;;;8.40;99.90;;;;;;5077876;28;20411;-65
2023/04/12 06:19:05;;;;;;;7.20;3.10;;;8.50;99.90;;;;;;5077900;28;20208;-80
2023/04/12 06:21:31;;;;;;;12.53;3.37;;;8.50;99.90;;;;;;5077397;28;20017;-66
2023/04/12 06:23:56;;;;;;;8.90;2.97;;;8.60;99.90;;;;;;5077760;28;20096;-65
2023/04/12 06:26:22;;;;;;;7.77;3.60;;;8.60;99.90;;;;;;5077439;28;20025;-65
2023/04/12 06:28:48;;;;;;;8.77;3.53;;;8.60;99.90;;;;;;5077212;28;20048;-64
2023/04/12 06:31:15;;;;;;;11.87;3.27;;;8.60;99.90;;;;;;5076258;28;20051;-65
2023/04/12 06:33:41;;;;;;;6.70;3.17;;;8.50;99.90;;;;;;5077601;28;20020;-65
2023/04/12 06:36:08;;;;;;;6.90;3.20;;;8.50;99.90;;;;;;5077095;28;20095;-66
2023/04/12 06:38:33;;;;;;;6.78;3.47;;;8.60;99.90;;;;;;5077037;28;20025;-65
2023/04/12 06:40:59;;;;;;;7.03;3.97;;;8.60;99.90;;;;;;5077360;28;20028;-81
2023/04/12 06:43:25;;;;;;;14.10;3.53;;;8.60;99.90;;;;;;5077388;28;20031;-65
2023/04/12 06:45:51;;;;;;;6.03;3.37;;;8.60;99.90;;;;;;5076936;28;20024;-65
2023/04/12 06:48:17;;;;;;;8.97;4.03;;;8.60;99.90;;;;;;5077488;28;20029;-65
2023/04/12 06:50:44;;;;;;;8.50;4.23;;;8.70;99.90;;;;;;5076935;28;20461;-65
2023/04/12 06:53:12;;;;;;;6.30;3.88;;;8.70;99.90;;;;;;5076953;28;20025;-67
2023/04/12 06:55:38;;;;;;;8.60;3.63;;;8.70;99.90;;;;;;5076542;28;20106;-65
2023/04/12 06:58:03;;;;;;;7.13;3.77;;;8.80;99.90;;;;;;5076916;28;20029;-83
2023/04/12 07:00:29;;;;;;;16.33;4.63;;;8.80;99.90;;;;;;5076887;28;20071;-65
2023/04/12 07:02:55;;;;;;;8.90;4.10;;;8.80;99.90;;;;;;5075779;28;20074;-65
2023/04/12 07:05:20;;;;;;;13.27;4.40;;;8.80;99.90;;;;;;5076916;28;20033;-65
2023/04/12 07:07:46;;;;;;;13.07;4.13;;;8.80;99.90;;;;;;5076464;28;20099;-66
2023/04/12 07:10:12;;;;;;;8.57;4.23;;;8.80;99.90;;;;;;5077066;28;20063;-65
2023/04/12 07:12:38;;;;;;;9.67;4.87;;;8.80;99.90;;;;;;5076602;28;20058;-64
2023/04/12 07:15:04;;;;;;;9.50;4.87;;;8.90;99.90;;;;;;5076561;28;20089;-81
2023/04/12 07:17:30;;;;;;;17.27;4.32;;;9.10;99.90;;;;;;5076572;28;20027;-64
2023/04/12 07:19:56;;;;;;;10.03;4.47;;;9.20;99.90;;;;;;5075087;28;20319;-64
2023/04/12 07:22:22;;;;;;;15.37;5.20;;;9.30;99.90;;;;;;5076370;28;20328;-65
2023/04/12 07:24:49;;;;;;;8.20;4.30;;;9.40;99.90;;;;;;5076060;28;20028;-65
2023/04/12 07:27:15;;;;;;;10.85;4.20;;;9.50;99.90;;;;;;5075210;28;20028;-65
2023/04/12 07:29:41;;;;;;;19.50;4.80;;;9.60;99.90;;;;;;5076040;28;20179;-66
2023/04/12 07:32:08;;;;;;;10.40;4.27;;;9.60;99.90;;;;;;5075975;28;20319;-80
2023/04/12 07:34:35;;;;;;;13.27;3.38;;;9.70;99.90;;;;;;5076306;28;20549;-64
2023/04/12 07:37:01;;;;;;;22.73;3.80;;;9.70;99.90;;;;;;5075838;28;20039;-80
2023/04/12 07:39:28;;;;;;;9.70;2.97;;;9.70;99.90;;;;;;5076165;28;20024;-65
2023/04/12 07:41:54;;;;;;;17.17;2.88;;;9.70;99.90;;;;;;5075507;28;20044;-65
2023/04/12 07:44:20;;;;;;;26.23;3.07;;;9.80;99.90;;;;;;5076314;28;20415;-65
2023/04/12 07:46:46;;;;;;;15.33;3.00;;;9.80;99.90;;;;;;5075834;28;20024;-65
2023/04/12 07:49:12;;;;;;;24.17;3.27;;;9.90;99.90;;;;;;5075677;28;20055;-84
2023/04/12 07:51:37;;;;;;;24.53;3.03;;;9.80;99.90;;;;;;5075570;28;20119;-64
2023/04/12 07:54:03;;;;;;;24.00;3.07;;;9.80;99.90;;;;;;5075611;28;20032;-64
2023/04/12 07:56:29;;;;;;;19.63;3.13;;;9.80;99.90;;;;;;5075734;28;20429;-64
2023/04/12 07:58:55;;;;;;;14.53;2.20;;;9.80;99.90;;;;;;5076054;28;20319;-64
2023/04/12 08:01:21;;;;;;;19.33;3.03;;;9.90;99.90;;;;;;5069277;28;20013;-66
2023/04/12 08:03:46;;;;;;;20.80;2.67;;;10.00;99.90;;;;;;5076029;28;20016;-64
2023/04/12 08:06:12;;;;;;;31.70;3.63;;;10.10;99.90;;;;;;5075605;28;20021;-65
2023/04/12 08:08:38;;;;;;;21.00;2.87;;;10.20;99.90;;;;;;5075655;28;20335;-66
2023/04/12 08:11:05;;;;;;;16.77;2.23;;;10.10;99.90;;;;;;5075290;28;20028;-82
2023/04/12 08:13:31;;;;;;;;;;;10.20;99.90;;;;;;5076081;28;20029;-65
2023/04/12 08:15:57;;;;;;;13.35;2.22;;;10.30;99.90;;;;;;5075072;28;19915;-88
2023/04/12 08:18:22;;;;;;;13.03;2.40;;;10.60;99.90;;;;;;5074396;28;20573;-64
2023/04/12 08:20:48;;;;;;;10.77;2.50;;;11.00;99.90;;;;;;5074157;28;20035;-66
2023/04/12 08:23:14;;;;;;;17.83;3.07;;;11.30;99.90;;;;;;5075117;28;20021;-65
2023/04/12 08:25:40;;;;;;;19.05;2.60;;;11.70;99.90;;;;;;5075463;28;20016;-65
2023/04/12 08:28:07;;;;;;;16.67;2.42;;;12.30;99.90;;;;;;5074824;28;20052;-79
2023/04/12 08:30:33;;;;;;;19.20;2.50;;;12.60;99.90;;;;;;5074114;28;20029;-64
2023/04/12 08:32:59;;;;;;;13.15;2.22;;;12.80;99.90;;;;;;5074914;28;20035;-77
2023/04/12 08:35:25;;;;;;;22.10;2.85;;;12.80;99.90;;;;;;5074991;28;20504;-66
2023/04/12 08:37:51;;;;;;;18.53;2.73;;;12.60;99.90;;;;;;5075067;28;20059;-65
2023/04/12 08:40:17;;;;;;;16.03;2.43;;;12.50;99.90;;;;;;5074841;28;20426;-65
2023/04/12 08:42:43;;;;;;;17.77;2.40;;;12.40;99.90;;;;;;5074980;28;20020;-65
2023/04/12 08:45:10;;;;;;;20.73;3.03;;;12.50;99.90;;;;;;5074758;28;20033;-64
2023/04/12 08:47:43;;;;;;;12.27;1.80;;;12.90;99.90;;;;;;5074885;28;20299;-64
2023/04/12 08:50:16;;;;;;;19.23;2.65;;;13.40;99.90;;;;;;5075116;28;20090;-78
2023/04/12 08:52:42;;;;;;;13.98;2.50;;;13.90;99.90;;;;;;5074758;28;20021;-64
2023/04/12 08:55:10;;;;;;;12.10;2.35;;;14.30;99.90;;;;;;5075007;28;20027;-80
2023/04/12 08:57:38;;;;;;;9.95;2.10;;;14.40;99.90;;;;;;5074460;28;20012;-65
2023/04/12 09:00:08;;;;;;;15.50;2.35;;;14.20;99.90;;;;;;5075006;28;20074;-65
2023/04/12 09:02:37;;;;;;;20.88;2.75;;;14.10;99.90;;;;;;5074591;28;20056;-65
2023/04/12 09:05:05;;;;;;;20.67;2.80;;;14.00;99.90;;;;;;5074955;28;20407;-84
2023/04/12 09:07:31;;;;;;;23.65;2.90;;;13.70;99.90;;;;;;5073398;28;20453;-65
2023/04/12 09:09:57;;;;;;;9.30;2.23;;;13.70;99.90;;;;;;5074819;28;20099;-64
2023/04/12 09:12:23;;;;;;;17.02;2.05;;;13.60;99.90;;;;;;5074669;28;20052;-64
2023/04/12 09:15:24;;;;;;;13.60;2.53;;;13.50;99.90;;;;;;5074344;28;20056;-65
2023/04/12 09:18:03;;;;;;;12.23;1.73;;;13.30;99.90;;;;;;4992859;28;20030;-65
2023/04/12 09:20:29;;;;;;;13.13;2.53;;;13.20;99.90;;;;;;4993463;28;20035;-64
2023/04/12 09:22:55;;;;;;;17.10;2.73;;;13.30;99.90;;;;;;4992946;28;20425;-65
2023/04/12 09:25:44;;;;;;;8.90;2.23;;;13.50;99.90;;;;;;4993575;28;20081;-65
2023/04/12 09:28:23;;;;;;;14.48;2.50;;;13.90;99.90;;;;;;4996959;28;22262;-65
2023/04/12 09:30:50;;;;;;;14.30;1.90;;;14.00;99.90;;;;;;4997331;28;20430;-64
2023/04/12 09:33:21;;;;;;;12.25;2.42;;;13.90;99.90;;;;;;4996835;28;20066;-64
2023/04/12 09:35:47;;;;;;;15.07;2.20;;;14.00;99.90;;;;;;4997064;28;20433;-64
2023/04/12 09:38:13;;;;;;;7.90;1.87;;;14.00;99.90;;;;;;4996528;28;20079;-64
2023/04/12 09:40:39;;;;;;;9.35;1.70;;;13.90;99.90;;;;;;4997165;28;20049;-64
2023/04/12 09:43:06;;;;;;;13.60;2.25;;;13.90;99.90;;;;;;4996998;28;20457;-88
2023/04/12 09:45:38;;;;;;;14.20;2.20;;;13.90;99.90;;;;;;4979042;28;20410;-65
2023/04/12 09:48:06;;;;;;;13.32;2.22;;;13.80;99.90;;;;;;4997068;28;20038;-84
2023/04/12 09:50:34;;;;;;;15.52;2.38;;;13.80;99.90;;;;;;4996732;28;20105;-66
2023/04/12 09:53:02;;;;;;;8.95;2.22;;;13.80;99.90;;;;;;5078233;28;20021;-65
2023/04/12 09:55:30;;;;;;;13.23;2.03;;;13.80;99.90;;;;;;5078319;28;20040;-64
2023/04/12 09:58:00;;;;;;;17.58;2.55;;;13.90;99.90;;;;;;5078033;28;20033;-65
2023/04/12 10:00:26;;;;;;;16.25;1.98;;;13.90;99.90;;;;;;5078177;28;20020;-86
2023/04/12 10:02:53;;;;;;;;;;;13.80;99.90;;;;;;5078206;28;20095;-64
2023/04/12 10:05:24;;;;;;;8.07;2.13;;;13.90;99.90;;;;;;5077870;28;19915;-64
2023/04/12 10:07:50;;;;;;;17.02;1.63;;;13.90;99.90;;;;;;5077554;28;20035;-65
2023/04/12 10:10:18;;;;;;;11.63;2.05;;;13.90;99.90;;;;;;5077999;28;20033;-65
2023/04/12 10:12:46;;;;;;;12.85;3.05;;;13.70;99.90;;;;;;5077245;28;20423;-65
2023/04/12 10:15:17;;;;;;;11.80;2.35;;;13.50;99.90;;;;;;5077783;28;20024;-64
2023/04/12 10:17:44;;;;;;;17.13;2.42;;;13.30;99.90;;;;;;5077561;28;20079;-64
2023/04/12 10:20:11;;;;;;;16.75;2.33;;;13.40;99.90;;;;;;5078028;28;20074;-66
2023/04/12 10:22:41;;;;;;;17.23;2.10;;;13.40;99.90;;;;;;5077799;28;20098;-64
2023/04/12 10:25:15;;;;;;;14.95;2.55;;;13.50;99.90;;;;;;5077600;28;20024;-87
2023/04/12 10:27:42;;;;;;;8.73;2.00;;;13.60;99.90;;;;;;5077451;28;20031;-65
2023/04/12 10:30:27;;;;;;;11.35;1.98;;;13.90;99.90;;;;;;5077177;28;20032;-64
2023/04/12 10:33:02;;;;;;;12.43;2.35;;;14.40;99.90;;;;;;5077417;28;20032;-64
2023/04/12 10:35:47;;;;;;;10.85;1.98;;;14.90;99.90;;;;;;5064459;28;20403;-64
2023/04/12 10:38:13;;;;;;;15.27;2.45;;;15.40;99.90;;;;;;5074737;28;20040;-65
2023/04/12 10:41:06;;;;;;;22.27;2.10;;;15.30;99.90;;;;;;5077086;28;20028;-64
2023/04/12 10:43:31;;;;;;;9.13;1.90;;;15.20;99.90;;;;;;5076855;28;20025;-64
2023/04/12 10:46:02;;;;;;;8.17;2.07;;;15.00;99.90;;;;;;5077084;28;20041;-65
2023/04/12 10:48:51;;;;;;;11.50;1.90;;;14.60;99.90;;;;;;5077321;28;20051;-63
2023/04/12 10:51:24;;;;;;;10.25;1.83;;;14.50;99.90;;;;;;5064336;28;20416;-63
2023/04/12 10:54:10;;;;;;;9.05;2.33;;;14.20;99.90;;;;;;5076746;28;20093;-64
2023/04/12 10:56:41;;;;;;;11.52;2.30;;;14.30;99.90;;;;;;5076856;28;20319;-63
2023/04/12 10:59:08;;;;;;;13.18;2.42;;;14.30;99.90;;;;;;5076741;28;20081;-86
2023/04/12 11:01:35;;;;;;;10.70;2.33;;;14.40;99.90;;;;;;5076882;28;20300;-65
2023/04/12 11:04:20;;;;;;;7.72;1.90;;;14.90;99.90;;;;;;5076781;28;20020;-64
2023/04/12 11:06:51;;;;;;;9.65;1.95;;;15.50;99.90;;;;;;5065339;28;20047;-63
2023/04/12 11:09:36;;;;;;;18.83;2.55;;;15.90;99.90;;;;;;5076568;28;20025;-64
2023/04/12 11:12:04;;;;;;;10.05;1.77;;;16.20;99.90;;;;;;5076607;28;20063;-64
2023/04/12 11:14:37;;;;;;;8.98;1.92;;;15.80;99.90;;;;;;5076571;28;20032;-65
2023/04/12 11:17:06;;;;;;;15.15;2.35;;;15.50;99.90;;;;;;5076379;28;20056;-81
2023/04/12 11:19:40;;;;;;;17.60;2.53;;;15.00;99.90;;;;;;5075953;28;20055;-64
2023/04/12 11:22:08;;;;;;;13.20;1.77;;;14.80;99.90;;;;;;5076450;28;20049;-63
2023/04/12 11:24:48;;;;;;;17.20;2.25;;;14.70;99.90;;;;;;5076178;28;20033;-64
2023/04/12 11:27:15;;;;;;;15.70;1.88;;;14.70;99.90;;;;;;5076512;28;20035;-66
2023/04/12 11:29:42;;;;;;;10.35;1.60;;;14.70;99.90;;;;;;5075762;28;20056;-67
2023/04/12 11:32:12;;;;;;;;;;;14.80;99.90;;;;;;5076619;28;20059;-86
2023/04/12 11:34:40;;;;;;;10.35;1.90;;;14.60;99.90;;;;;;5076347;28;19908;-66
2023/04/12 11:37:07;;;;;;;11.77;1.60;;;14.70;99.90;;;;;;5069255;28;20028;-84
2023/04/12 11:39:43;;;;;;;11.18;2.08;;;14.70;99.90;;;;;;5072629;28;20415;-65
2023/04/12 11:42:14;;;;;;;11.55;1.90;;;15.10;99.90;;;;;;5075076;28;20024;-69
2023/04/12 11:44:42;;;;;;;12.98;2.30;;;15.60;99.90;;;;;;5075135;28;20293;-64
2023/04/12 11:47:20;;;;;;;15.75;1.60;;;16.00;99.90;;;;;;5073614;28;20029;-65
2023/04/12 11:49:50;;;;;;;11.40;1.65;;;16.20;99.90;;;;;;5075061;28;20159;-65
2023/04/12 11:52:16;;;;;;;14.93;1.60;;;16.50;99.90;;;;;;5074549;28;20047;-79
2023/04/12 11:54:45;;;;;;;13.90;2.35;;;16.50;99.90;;;;;;5075050;28;20029;-64
2023/04/12 11:57:12;;;;;;;10.52;2.22;;;16.20;99.90;;;;;;5075138;28;20055;-64
2023/04/12 11:59:38;;;;;;;10.65;2.05;;;16.00;99.90;;;;;;5074498;28;20017;-66
2023/04/12 12:02:06;;;;;;;13.23;2.00;;;15.80;99.90;;;;;;5073769;28;20056;-82
2023/04/12 12:04:32;;;;;;;5.13;1.27;;;15.70;99.90;;;;;;5074805;28;20089;-65
2023/04/12 12:06:59;;;;;;;5.43;1.02;;;15.20;99.90;;;;;;5074908;28;20651;-65
2023/04/12 12:09:25;;;;;;;;;;;15.20;99.90;;;;;;5074944;28;20028;-64
2023/04/12 12:11:51;;;;;;;;;;;15.10;99.90;;;;;;5075044;28;20334;-64
2023/04/12 12:14:19;;;;;;;6.28;0.95;;;14.80;99.90;;;;;;5074616;28;19918;-64
2023/04/12 12:16:53;;;;;;;7.22;1.13;;;14.70;99.50;;;;;;5074698;28;20024;-65
2023/04/12 12:19:30;;;;;;;5.28;1.17;;;14.60;99.90;;;;;;5074825;28;20312;-77
2023/04/12 12:22:16;;;;;;;5.43;0.90;;;14.40;99.90;;;;;;5062065;28;20024;-65
2023/04/12 12:24:48;;;;;;;5.55;0.90;;;14.20;99.90;;;;;;5074354;28;20023;-78
2023/04/12 12:27:17;;;;;;;2.88;0.80;;;14.10;99.90;;;;;;5074788;28;20028;-66
2023/04/12 12:29:47;;;;;;;4.65;1.05;;;13.90;99.90;;;;;;5074093;28;20044;-64
2023/04/12 12:32:13;;;;;;;5.97;1.23;;;13.80;99.90;;;;;;5074495;28;20454;-81
2023/04/12 12:34:40;;;;;;;7.05;1.33;;;13.80;99.90;;;;;;5074481;28;20327;-65
2023/04/12 12:37:09;;;;;;;4.07;0.98;;;13.70;99.90;;;;;;5074743;28;20032;-65
2023/04/12 12:39:35;;;;;;;5.63;1.10;;;13.70;99.90;;;;;;5074477;28;20017;-64
2023/04/12 12:42:04;;;;;;;5.32;1.05;;;13.80;99.90;;;;;;5073776;28;20119;-65
2023/04/12 12:44:30;;;;;;;6.82;1.40;;;13.90;99.90;;;;;;5074568;28;20103;-65
2023/04/12 12:47:00;;;;;;;5.53;0.88;;;14.00;99.90;;;;;;5074237;28;20025;-64
2023/04/12 12:49:25;;;;;;;7.38;0.95;;;14.00;99.90;;;;;;5074544;28;20031;-65
2023/04/12 12:51:51;;;;;;;2.67;0.87;;;13.80;99.90;;;;;;5074274;28;20029;-64
2023/04/12 12:54:17;;;;;;;7.73;1.07;;;13.80;99.90;;;;;;5074092;28;20039;-64
2023/04/12 12:56:44;;;;;;;4.63;1.30;;;13.50;99.90;;;;;;5071416;28;20067;-64
2023/04/12 12:59:10;;;;;;;1.67;0.60;;;13.30;99.90;;;;;;5073691;28;20249;-65